Ventura — ZCDT2 — position and weather

sailwx.info

Track history (hours):
 
Tides and Currents Weather Stations Pressure Air Temp Water Temp Dewpoint Dewpoint Depression Visibility Wind Speed Wind Dir Waves Ship Positions

Ventura

Last reported at 2015-Jul-30 07:33 UTC. Time now 2015-Jul-31 13:25 UTC.
Position N 38°09' W 000°24'.

Length 288 m; draft 8.6 m.

Type: Passenger vessel. MMSI: 310562000.

Date/timePositionNaut miles runAvg speedWind from/ knotsBaromVisibWave heightAir tempDewpointWater temp
2015-Jul-30 07:33N 38°09' W 000°24'2019.7
2015-Jul-30 06:33N 37°49' W 000°26'1919.4
2015-Jul-30 05:34N 37°31' W 000°33'2120.1
2015-Jul-30 04:30N 37°16' W 000°53'2020.5
2015-Jul-30 03:32N 37°04' W 001°12'2220.5
2015-Jul-30 02:29N 36°50' W 001°32'2020.8
2015-Jul-30 01:30N 36°36' W 001°51'24620.6
2015-Jul-29 13:33N 36°02' W 006°54'2120.7
2015-Jul-29 12:33N 36°08' W 007°19'2220.8
2015-Jul-29 11:29N 36°14' W 007°45'6221.0
2015-Jul-29 08:30N 36°30' W 009°00'2120.7
2015-Jul-29 07:30N 36°38' W 009°24'2220.4
2015-Jul-29 06:26N 36°58' W 009°36'1821.0
2015-Jul-29 05:33N 37°15' W 009°41'2121.2
2015-Jul-29 04:33N 37°36' W 009°47'2121.1
2015-Jul-29 03:33N 37°57' W 009°53'2121.0
2015-Jul-29 02:33N 38°17' W 009°59'2120.8
2015-Jul-29 01:33N 38°37' W 010°05'2120.8
2015-Jul-29 00:33N 38°58' W 010°06'2121.0
2015-Jul-28 23:33N 39°19' W 010°07'2121.1
2015-Jul-28 22:33N 39°40' W 010°06'2120.8
2015-Jul-28 21:33N 40°01' W 010°00'2720.9
2015-Jul-28 20:14N 40°27' W 009°48'30611.2
2015-Jul-27 17:00N 45°24' W 008°12'29019.3 300 / 171018.510.8 1.018.012.718.4
2015-Jul-27 02:00N 49°18' W 004°00'3014.8 240 / 311004.010.8 3.516.013.316.0
2015-Jul-27 00:00N 49°36' W 003°24'6021.1 260 / 261003.010.8 3.516.013.317.0
2015-Jul-26 21:08N 50°11' W 002°08'1320.5
2015-Jul-26 20:28N 50°17' W 001°49'2319.9
2015-Jul-26 19:19N 50°27' W 001°16'1418.2
2015-Jul-26 18:33N 50°36' W 000°60'1211.6
2015-Jul-26 17:33N 50°46' W 001°11'10 9.9
2015-Jul-26 16:34N 50°52' W 001°22'2 1.8
2015-Jul-26 15:33N 50°54' W 001°24'0 0.0
2015-Jul-26 14:33N 50°54' W 001°24'0 0.0
2015-Jul-26 13:33N 50°54' W 001°24'0 0.0
2015-Jul-26 12:33N 50°54' W 001°24'0 0.0
2015-Jul-26 11:33N 50°54' W 001°24'0 0.0
2015-Jul-26 10:33N 50°54' W 001°24'0 0.0
2015-Jul-26 09:33N 50°54' W 001°24'0 0.0
2015-Jul-26 08:33N 50°54' W 001°24'0 0.0
2015-Jul-26 07:33N 50°54' W 001°24'0 0.0
2015-Jul-26 06:33N 50°54' W 001°24'0 0.1
2015-Jul-26 05:33N 50°54' W 001°24'7 6.7
2015-Jul-26 04:33N 50°48' W 001°18'1212.4
2015-Jul-26 03:33N 50°43' W 000°60'1010.0
2015-Jul-26 02:33N 50°33' W 001°02'712.4
2015-Jul-26 02:00N 50°30' W 001°12'716.6 210 / 171015.810.8 1.015.510.810.0
2015-Jul-26 01:33N 50°27' W 001°23'3814.9
2015-Jul-25 23:00N 50°06' W 002°12'25415.0 270 / 121018.010.8 16.412.415.4
2015-Jul-25 06:00N 46°54' W 006°24'341 9.6 330 / 241021.510.8 1.015.5 9.118.4
2015-Jul-23 18:21N 41°33' W 009°02'2613.7
2015-Jul-23 16:26N 41°10' W 008°45'2 0.2
2015-Jul-23 05:32N 41°11' W 008°42'10 7.2
2015-Jul-23 04:09N 41°03' W 008°50'1216.2
2015-Jul-23 03:25N 40°53' W 008°59'1416.0
2015-Jul-23 02:33N 40°41' W 009°07'1816.2
2015-Jul-23 01:26N 40°24' W 009°16'1416.0
2015-Jul-23 00:33N 40°10' W 009°22'1716.8
2015-Jul-22 23:33N 39°56' W 009°33'1817.1
2015-Jul-22 22:30N 39°40' W 009°44'1617.2
2015-Jul-22 21:33N 39°24' W 009°45'1716.8
2015-Jul-22 20:33N 39°07' W 009°44'1615.6
2015-Jul-22 19:33N 38°51' W 009°43'1414.5
2015-Jul-22 18:33N 38°37' W 009°39'1514.8
2015-Jul-22 17:33N 38°39' W 009°20'1010.4
2015-Jul-22 16:33N 38°43' W 009°08'0 0.0
2015-Jul-22 15:30N 38°43' W 009°08'0 0.0
2015-Jul-22 14:30N 38°43' W 009°08'0 0.0
2015-Jul-22 13:24N 38°43' W 009°08'0 0.0
2015-Jul-22 12:30N 38°43' W 009°08'0 0.0
2015-Jul-22 11:30N 38°43' W 009°08'0 0.0
2015-Jul-22 10:24N 38°43' W 009°08'0 0.0
2015-Jul-22 09:24N 38°43' W 009°08'0 0.0
2015-Jul-22 08:33N 38°43' W 009°08'0 0.0
2015-Jul-22 07:27N 38°43' W 009°08'0 0.0
2015-Jul-22 06:33N 38°42' W 009°08'6 5.9
2015-Jul-22 05:33N 38°41' W 009°15'1514.7
2015-Jul-22 04:34N 38°35' W 009°32'1413.6
2015-Jul-22 03:34N 38°46' W 009°43'1716.5
2015-Jul-22 02:34N 39°03' W 009°44'1716.5
2015-Jul-22 01:33N 39°19' W 009°46'1616.4
2015-Jul-22 00:33N 39°36' W 009°47'1616.5
2015-Jul-21 23:34N 39°52' W 009°48'1716.5
2015-Jul-21 22:33N 40°09' W 009°50'1716.5
2015-Jul-21 21:33N 40°25' W 009°51'59816.5
2015-Jul-20 09:13N 49°17' W 003°28'  
Track history (hours):
 
Tides and Currents Weather Stations Pressure Air Temp Water Temp Dewpoint Dewpoint Depression Visibility Wind Speed Wind Dir Waves Ship Positions

Ventura

Last reported at 2015-Jul-30 07:33 UTC. Time now 2015-Jul-31 13:25 UTC.
Position N 38°09' W 000°24'.

Length 288 m; draft 8.6 m.

Type: Passenger vessel. MMSI: 310562000.

Date/timePositionNaut miles runAvg speedWind from/ knotsBaromVisibWave heightAir tempDewpointWater temp
2015-Jul-30 07:33N 38°09' W 000°24'2019.7
2015-Jul-30 06:33N 37°49' W 000°26'1919.4
2015-Jul-30 05:34N 37°31' W 000°33'2120.1
2015-Jul-30 04:30N 37°16' W 000°53'2020.5
2015-Jul-30 03:32N 37°04' W 001°12'2220.5
2015-Jul-30 02:29N 36°50' W 001°32'2020.8
2015-Jul-30 01:30N 36°36' W 001°51'24620.6
2015-Jul-29 13:33N 36°02' W 006°54'2120.7
2015-Jul-29 12:33N 36°08' W 007°19'2220.8
2015-Jul-29 11:29N 36°14' W 007°45'6221.0
2015-Jul-29 08:30N 36°30' W 009°00'2120.7
2015-Jul-29 07:30N 36°38' W 009°24'2220.4
2015-Jul-29 06:26N 36°58' W 009°36'1821.0
2015-Jul-29 05:33N 37°15' W 009°41'2121.2
2015-Jul-29 04:33N 37°36' W 009°47'2121.1
2015-Jul-29 03:33N 37°57' W 009°53'2121.0
2015-Jul-29 02:33N 38°17' W 009°59'2120.8
2015-Jul-29 01:33N 38°37' W 010°05'2120.8
2015-Jul-29 00:33N 38°58' W 010°06'2121.0
2015-Jul-28 23:33N 39°19' W 010°07'2121.1
2015-Jul-28 22:33N 39°40' W 010°06'2120.8
2015-Jul-28 21:33N 40°01' W 010°00'2720.9
2015-Jul-28 20:14N 40°27' W 009°48'30611.2
2015-Jul-27 17:00N 45°24' W 008°12'29019.3 300 / 171018.510.8 1.018.012.718.4
2015-Jul-27 02:00N 49°18' W 004°00'3014.8 240 / 311004.010.8 3.516.013.316.0
2015-Jul-27 00:00N 49°36' W 003°24'6021.1 260 / 261003.010.8 3.516.013.317.0
2015-Jul-26 21:08N 50°11' W 002°08'1320.5
2015-Jul-26 20:28N 50°17' W 001°49'2319.9
2015-Jul-26 19:19N 50°27' W 001°16'1418.2
2015-Jul-26 18:33N 50°36' W 000°60'1211.6
2015-Jul-26 17:33N 50°46' W 001°11'10 9.9
2015-Jul-26 16:34N 50°52' W 001°22'2 1.8
2015-Jul-26 15:33N 50°54' W 001°24'0 0.0
2015-Jul-26 14:33N 50°54' W 001°24'0 0.0
2015-Jul-26 13:33N 50°54' W 001°24'0 0.0
2015-Jul-26 12:33N 50°54' W 001°24'0 0.0
2015-Jul-26 11:33N 50°54' W 001°24'0 0.0
2015-Jul-26 10:33N 50°54' W 001°24'0 0.0
2015-Jul-26 09:33N 50°54' W 001°24'0 0.0
2015-Jul-26 08:33N 50°54' W 001°24'0 0.0
2015-Jul-26 07:33N 50°54' W 001°24'0 0.0
2015-Jul-26 06:33N 50°54' W 001°24'0 0.1
2015-Jul-26 05:33N 50°54' W 001°24'7 6.7
2015-Jul-26 04:33N 50°48' W 001°18'1212.4
2015-Jul-26 03:33N 50°43' W 000°60'1010.0
2015-Jul-26 02:33N 50°33' W 001°02'712.4
2015-Jul-26 02:00N 50°30' W 001°12'716.6 210 / 171015.810.8 1.015.510.810.0
2015-Jul-26 01:33N 50°27' W 001°23'3814.9
2015-Jul-25 23:00N 50°06' W 002°12'25415.0 270 / 121018.010.8 16.412.415.4
2015-Jul-25 06:00N 46°54' W 006°24'341 9.6 330 / 241021.510.8 1.015.5 9.118.4
2015-Jul-23 18:21N 41°33' W 009°02'2613.7
2015-Jul-23 16:26N 41°10' W 008°45'2 0.2
2015-Jul-23 05:32N 41°11' W 008°42'10 7.2
2015-Jul-23 04:09N 41°03' W 008°50'1216.2
2015-Jul-23 03:25N 40°53' W 008°59'1416.0
2015-Jul-23 02:33N 40°41' W 009°07'1816.2
2015-Jul-23 01:26N 40°24' W 009°16'1416.0
2015-Jul-23 00:33N 40°10' W 009°22'1716.8
2015-Jul-22 23:33N 39°56' W 009°33'1817.1
2015-Jul-22 22:30N 39°40' W 009°44'1617.2
2015-Jul-22 21:33N 39°24' W 009°45'1716.8
2015-Jul-22 20:33N 39°07' W 009°44'1615.6
2015-Jul-22 19:33N 38°51' W 009°43'1414.5
2015-Jul-22 18:33N 38°37' W 009°39'1514.8
2015-Jul-22 17:33N 38°39' W 009°20'1010.4
2015-Jul-22 16:33N 38°43' W 009°08'0 0.0
2015-Jul-22 15:30N 38°43' W 009°08'0 0.0
2015-Jul-22 14:30N 38°43' W 009°08'0 0.0
2015-Jul-22 13:24N 38°43' W 009°08'0 0.0
2015-Jul-22 12:30N 38°43' W 009°08'0 0.0
2015-Jul-22 11:30N 38°43' W 009°08'0 0.0
2015-Jul-22 10:24N 38°43' W 009°08'0 0.0
2015-Jul-22 09:24N 38°43' W 009°08'0 0.0
2015-Jul-22 08:33N 38°43' W 009°08'0 0.0
2015-Jul-22 07:27N 38°43' W 009°08'0 0.0
2015-Jul-22 06:33N 38°42' W 009°08'6 5.9
2015-Jul-22 05:33N 38°41' W 009°15'1514.7
2015-Jul-22 04:34N 38°35' W 009°32'1413.6
2015-Jul-22 03:34N 38°46' W 009°43'1716.5
2015-Jul-22 02:34N 39°03' W 009°44'1716.5
2015-Jul-22 01:33N 39°19' W 009°46'1616.4
2015-Jul-22 00:33N 39°36' W 009°47'1616.5
2015-Jul-21 23:34N 39°52' W 009°48'1716.5
2015-Jul-21 22:33N 40°09' W 009°50'1716.5
2015-Jul-21 21:33N 40°25' W 009°51'59816.5
2015-Jul-20 09:13N 49°17' W 003°28'  

Dump ship's entire track history